createdAt,value
2024-03-05T00:00:11.977Z,25.63
2024-03-05T00:02:39.846Z,23.38
2024-03-05T00:05:08.004Z,24.98
2024-03-05T00:07:36.655Z,24.20
2024-03-05T00:10:06.641Z,24.60
2024-03-05T00:12:34.681Z,24.15
2024-03-05T00:15:02.144Z,23.50
2024-03-05T00:17:28.634Z,24.30
2024-03-05T00:19:55.279Z,24.02
2024-03-05T00:22:21.896Z,23.70
2024-03-05T00:24:48.529Z,22.95
2024-03-05T00:27:15.112Z,23.13
2024-03-05T00:29:45.078Z,23.80
2024-03-05T00:32:11.527Z,23.33
2024-03-05T00:34:38.877Z,23.80
2024-03-05T00:37:05.479Z,23.17
2024-03-05T00:39:31.934Z,23.38
2024-03-05T00:41:58.381Z,24.20
2024-03-05T00:44:24.919Z,22.98
2024-03-05T00:46:51.466Z,22.48
2024-03-05T00:49:18.139Z,22.48
2024-03-05T00:51:45.362Z,22.98
2024-03-05T00:54:13.286Z,22.73
2024-03-05T00:56:39.727Z,22.27
2024-03-05T00:59:06.132Z,21.60
2024-03-05T01:01:35.206Z,21.13
2024-03-05T01:04:02.511Z,20.77
2024-03-05T01:06:29.026Z,22.13
2024-03-05T01:08:56.642Z,21.88
2024-03-05T01:11:23.120Z,20.30
2024-03-05T01:13:49.689Z,19.58
2024-03-05T01:16:16.638Z,21.38
2024-03-05T01:18:43.153Z,21.25
2024-03-05T01:21:10.475Z,20.25
2024-03-05T01:23:38.721Z,21.58
2024-03-05T01:26:05.273Z,20.45
2024-03-05T01:28:32.227Z,20.23
2024-03-05T01:31:00.190Z,19.67
2024-03-05T01:33:27.002Z,20.38
2024-03-05T01:35:54.743Z,20.30
2024-03-05T01:38:21.781Z,20.63
2024-03-05T01:40:48.434Z,20.13
2024-03-05T01:43:16.291Z,20.52
2024-03-05T01:45:44.038Z,19.08
2024-03-05T01:48:12.802Z,20.60
2024-03-05T01:50:39.626Z,20.80
2024-03-05T01:53:10.486Z,20.08
2024-03-05T01:55:39.486Z,20.38
2024-03-05T01:58:08.984Z,20.23
2024-03-05T02:00:40.324Z,19.45
2024-03-05T02:03:07.206Z,19.75
2024-03-05T02:09:22.990Z,20.25
2024-03-05T02:11:56.649Z,20.83
2024-03-05T02:14:29.459Z,20.85
2024-03-05T02:16:58.136Z,19.90
2024-03-05T02:19:25.170Z,19.75
2024-03-05T02:22:17.942Z,21.48
2024-03-05T02:24:44.460Z,19.88
2024-03-05T02:27:14.623Z,20.60
2024-03-05T02:29:46.670Z,21.73
2024-03-05T02:32:13.217Z,20.90
2024-03-05T02:34:39.760Z,21.77
2024-03-05T02:37:07.266Z,22.98
2024-03-05T02:39:34.369Z,22.35
2024-03-05T02:42:01.217Z,21.83
2024-03-05T02:44:27.763Z,22.90
2024-03-05T02:46:54.351Z,23.80
2024-03-05T02:49:21.096Z,21.58
2024-03-05T02:51:48.987Z,21.73
2024-03-05T02:54:18.533Z,21.50
2024-03-05T02:56:45.057Z,22.35
2024-03-05T02:59:11.630Z,20.23
2024-03-05T03:01:38.234Z,22.35
2024-03-05T03:04:06.569Z,22.23
2024-03-05T03:06:33.933Z,20.63
2024-03-05T03:09:00.413Z,23.95
2024-03-05T03:11:26.932Z,22.17
2024-03-05T03:13:54.993Z,22.58
2024-03-05T03:16:21.509Z,22.13
2024-03-05T03:18:48.074Z,23.63
2024-03-05T03:21:14.571Z,24.48
2024-03-05T03:23:41.036Z,22.77
2024-03-05T03:26:08.126Z,22.85
2024-03-05T03:28:34.797Z,21.85
2024-03-05T03:31:01.553Z,23.02
2024-03-05T03:33:28.071Z,23.42
2024-03-05T03:35:56.412Z,22.60
2024-03-05T03:38:23.001Z,21.10
2024-03-05T03:40:49.613Z,21.73
2024-03-05T03:43:16.624Z,20.98
2024-03-05T03:45:43.685Z,22.13
2024-03-05T03:48:10.308Z,20.65
2024-03-05T03:50:39.814Z,21.77
2024-03-05T03:53:07.162Z,22.35
2024-03-05T03:55:34.656Z,22.38
2024-03-05T03:58:01.180Z,23.27
2024-03-05T04:00:27.650Z,20.90
2024-03-05T04:02:54.134Z,21.80
2024-03-05T04:05:20.649Z,23.23
2024-03-05T04:07:47.644Z,21.83
2024-03-05T04:10:15.170Z,22.58
2024-03-05T04:12:41.731Z,22.83
2024-03-05T04:15:13.421Z,22.15
2024-03-05T04:17:41.076Z,22.05
2024-03-05T04:20:10.466Z,21.50
2024-03-05T04:22:40.865Z,21.73
2024-03-05T04:25:08.098Z,22.25
2024-03-05T04:27:36.652Z,22.33
2024-03-05T04:30:04.859Z,22.25
2024-03-05T04:32:31.543Z,22.30
2024-03-05T04:35:07.597Z,21.42
2024-03-05T04:37:34.217Z,22.00
2024-03-05T04:40:00.946Z,20.05
2024-03-05T04:42:27.384Z,21.23
2024-03-05T04:44:54.984Z,21.05
2024-03-05T04:47:21.954Z,21.60
2024-03-05T04:49:49.094Z,21.20
2024-03-05T04:52:15.785Z,21.35
2024-03-05T04:54:42.245Z,21.23
2024-03-05T04:57:09.469Z,19.73
2024-03-05T04:59:35.924Z,19.92
2024-03-05T05:02:02.908Z,20.08
2024-03-05T05:04:29.536Z,19.90
2024-03-05T05:06:56.746Z,20.25
2024-03-05T05:09:23.737Z,20.42
2024-03-05T05:11:50.281Z,20.13
2024-03-05T05:14:17.844Z,19.98
2024-03-05T05:16:46.857Z,19.08
2024-03-05T05:19:15.317Z,20.40
2024-03-05T05:21:42.294Z,19.60
2024-03-05T05:24:08.781Z,21.77
2024-03-05T05:26:35.194Z,20.13
2024-03-05T05:29:02.047Z,21.77
2024-03-05T05:31:28.705Z,19.40
2024-03-05T05:33:58.625Z,20.25
2024-03-05T05:36:25.401Z,20.15
2024-03-05T05:38:51.893Z,20.83
2024-03-05T05:41:21.952Z,19.48
2024-03-05T05:43:51.265Z,19.27
2024-03-05T05:46:22.985Z,20.73
2024-03-05T05:48:51.175Z,18.63
2024-03-05T05:51:19.331Z,20.73
2024-03-05T05:53:46.460Z,20.75
2024-03-05T05:56:14.809Z,18.25
2024-03-05T05:58:41.288Z,18.40
2024-03-05T06:01:10.713Z,19.52
2024-03-05T06:03:38.162Z,18.92
2024-03-05T06:06:05.187Z,18.70
2024-03-05T06:08:31.661Z,19.95
2024-03-05T06:10:58.355Z,19.55
2024-03-05T06:13:25.513Z,17.88
2024-03-05T06:15:52.278Z,19.10
2024-03-05T06:18:18.880Z,18.60
2024-03-05T06:20:45.399Z,18.13
2024-03-05T06:23:14.673Z,19.02
2024-03-05T06:25:42.758Z,20.10
2024-03-05T06:28:10.958Z,18.25
2024-03-05T06:30:37.497Z,18.08
2024-03-05T06:33:09.751Z,18.48
2024-03-05T06:35:36.956Z,18.98
2024-03-05T06:38:09.459Z,19.65
2024-03-05T06:40:39.422Z,18.45
2024-03-05T06:43:13.745Z,20.08
2024-03-05T06:45:43.874Z,19.73
2024-03-05T06:48:17.408Z,18.40
2024-03-05T06:50:48.403Z,18.67
2024-03-05T06:53:33.931Z,19.52
2024-03-05T06:56:19.022Z,18.65
2024-03-05T06:58:47.214Z,18.67
2024-03-05T07:01:14.785Z,18.92
2024-03-05T07:03:43.392Z,18.58
2024-03-05T07:06:16.357Z,18.48
2024-03-05T07:08:45.488Z,18.70
2024-03-05T07:11:13.397Z,18.15
2024-03-05T07:13:44.770Z,17.83
2024-03-05T07:16:17.221Z,18.65
2024-03-05T07:18:45.290Z,17.67
2024-03-05T07:21:12.236Z,18.15
2024-03-05T07:23:40.897Z,18.13
2024-03-05T07:26:07.999Z,17.50
2024-03-05T07:28:34.954Z,17.88
2024-03-05T07:31:02.983Z,18.85
2024-03-05T07:33:29.482Z,18.17
2024-03-05T07:35:55.985Z,17.88
2024-03-05T07:38:22.611Z,16.83
2024-03-05T07:40:49.414Z,16.30
2024-03-05T07:43:16.471Z,17.48
2024-03-05T07:45:43.792Z,17.05
2024-03-05T07:48:14.959Z,16.23
2024-03-05T07:50:42.334Z,15.77
2024-03-05T07:53:09.573Z,15.60
2024-03-05T07:55:45.771Z,17.67
2024-03-05T07:58:13.726Z,17.05
2024-03-05T08:00:40.338Z,18.35
2024-03-05T08:03:06.979Z,17.60
2024-03-05T08:05:35.772Z,16.30
2024-03-05T08:08:02.717Z,17.40
2024-03-05T08:10:29.942Z,17.35
2024-03-05T08:12:56.926Z,16.58
2024-03-05T08:15:31.295Z,16.15
2024-03-05T08:17:58.267Z,16.45
2024-03-05T08:20:28.120Z,15.82
2024-03-05T08:22:56.213Z,16.20
2024-03-05T08:25:24.037Z,16.65
2024-03-05T08:28:00.178Z,18.30
2024-03-05T08:30:32.305Z,16.48
2024-03-05T08:32:59.210Z,15.65
2024-03-05T08:35:30.468Z,16.73
2024-03-05T08:37:58.153Z,16.73
2024-03-05T08:40:25.352Z,16.42
2024-03-05T08:42:56.648Z,17.00
2024-03-05T08:45:24.973Z,16.92
2024-03-05T08:47:53.654Z,16.30
2024-03-05T08:50:21.564Z,16.40
2024-03-05T08:52:48.392Z,16.45
2024-03-05T08:55:16.554Z,17.75
2024-03-05T08:57:43.767Z,16.08
2024-03-05T09:00:32.283Z,16.13
2024-03-05T09:03:09.279Z,15.13
2024-03-05T09:05:36.967Z,14.90
2024-03-05T09:08:04.383Z,16.83
2024-03-05T09:10:31.616Z,15.70
2024-03-05T09:12:59.530Z,15.90
2024-03-05T09:15:26.888Z,16.70
2024-03-05T09:17:53.457Z,15.82
2024-03-05T09:20:20.088Z,14.65
2024-03-05T09:22:47.528Z,16.15
2024-03-05T09:25:15.931Z,15.73
2024-03-05T09:27:43.979Z,16.50
2024-03-05T09:30:11.377Z,15.98
2024-03-05T09:32:37.990Z,15.73
2024-03-05T09:35:10.069Z,17.25
2024-03-05T09:37:37.450Z,16.75
2024-03-05T09:40:10.327Z,14.45
2024-03-05T09:42:38.135Z,14.68
2024-03-05T09:45:07.558Z,13.63
2024-03-05T09:47:38.715Z,13.30
2024-03-05T09:50:08.116Z,13.90
2024-03-05T09:52:35.572Z,13.98
2024-03-05T09:55:03.059Z,13.52
2024-03-05T09:57:40.913Z,12.90
2024-03-05T10:00:23.592Z,12.90
2024-03-05T10:02:53.533Z,14.00
2024-03-05T10:05:21.282Z,13.88
2024-03-05T10:07:49.484Z,13.68
2024-03-05T10:10:20.642Z,13.50
2024-03-05T10:12:47.239Z,13.18
2024-03-05T10:15:23.900Z,13.20
2024-03-05T10:17:53.760Z,13.85
2024-03-05T10:20:35.012Z,13.48
2024-03-05T10:23:06.210Z,13.55
2024-03-05T10:25:35.808Z,13.85
2024-03-05T10:28:06.399Z,13.65
2024-03-05T10:30:35.407Z,13.30
2024-03-05T10:33:10.820Z,14.00
2024-03-05T10:35:42.728Z,13.48
2024-03-05T10:38:11.993Z,12.65
2024-03-05T10:40:40.733Z,13.15
2024-03-05T10:43:09.749Z,12.82
2024-03-05T10:45:42.290Z,13.52
2024-03-05T10:48:11.627Z,13.07
2024-03-05T10:50:44.874Z,12.43
2024-03-05T10:53:12.411Z,12.23
2024-03-05T10:55:39.791Z,10.95
2024-03-05T10:58:10.236Z,11.63
2024-03-05T11:00:37.792Z,11.07
2024-03-05T11:03:11.995Z,10.15
2024-03-05T11:05:50.873Z,9.68
2024-03-05T11:08:26.679Z,9.57
2024-03-05T11:10:58.946Z,10.52
2024-03-05T11:13:27.342Z,10.48
2024-03-05T11:15:54.455Z,8.68
2024-03-05T11:18:29.379Z,8.70
2024-03-05T11:20:56.213Z,7.60
2024-03-05T11:23:27.816Z,7.18
2024-03-05T11:28:24.930Z,7.35
2024-03-05T11:31:21.637Z,7.40
2024-03-05T11:34:04.280Z,7.70
2024-03-05T11:36:35.048Z,8.20
2024-03-05T11:39:08.590Z,7.75
2024-03-05T11:41:39.766Z,7.32
2024-03-05T11:44:06.612Z,6.57
2024-03-05T11:46:51.904Z,8.63
2024-03-05T11:49:20.110Z,8.55
2024-03-05T11:51:48.443Z,8.57
2024-03-05T11:54:18.760Z,8.18
2024-03-05T11:59:14.877Z,7.60
2024-03-05T12:01:42.827Z,8.80
2024-03-05T12:04:12.192Z,7.78
2024-03-05T12:06:40.838Z,8.20
2024-03-05T12:09:19.541Z,8.13
2024-03-05T12:12:03.878Z,7.68
2024-03-05T12:14:31.834Z,8.20
2024-03-05T12:17:00.813Z,7.63
2024-03-05T12:19:28.068Z,6.82
2024-03-05T12:21:55.609Z,7.00
2024-03-05T12:24:24.870Z,7.22
2024-03-05T12:26:54.120Z,6.93
2024-03-05T12:29:30.925Z,7.80
2024-03-05T12:31:58.497Z,6.80
2024-03-05T12:34:26.865Z,6.88
2024-03-05T12:36:54.339Z,7.15
2024-03-05T12:39:20.871Z,6.78
2024-03-05T12:42:07.087Z,6.60
2024-03-05T12:44:34.925Z,6.30
2024-03-05T12:47:15.055Z,7.35
2024-03-05T12:49:47.976Z,6.43
2024-03-05T12:52:20.441Z,6.90
2024-03-05T12:54:57.348Z,6.85
2024-03-05T12:57:31.745Z,7.38
2024-03-05T13:00:02.681Z,6.40
2024-03-05T13:02:29.421Z,6.85
2024-03-05T13:04:59.174Z,6.60
2024-03-05T13:07:26.704Z,6.60
2024-03-05T13:09:55.143Z,6.10
2024-03-05T13:12:21.688Z,6.30
2024-03-05T13:14:48.187Z,5.80
2024-03-05T13:17:14.817Z,5.53
2024-03-05T13:19:41.297Z,5.85
2024-03-05T13:22:07.882Z,5.65
2024-03-05T13:24:35.242Z,6.55
2024-03-05T13:27:01.795Z,6.25
2024-03-05T13:29:28.253Z,6.20
2024-03-05T13:31:54.841Z,5.75
2024-03-05T13:34:23.681Z,6.57
2024-03-05T13:36:50.543Z,6.15
2024-03-05T13:39:23.013Z,7.43
2024-03-05T13:41:53.676Z,6.78
2024-03-05T13:44:23.595Z,5.07
2024-03-05T13:46:54.049Z,6.57
2024-03-05T13:49:21.970Z,6.57
2024-03-05T13:51:49.324Z,7.00
2024-03-05T13:54:15.949Z,6.97
2024-03-05T13:56:44.860Z,7.20
2024-03-05T13:59:12.360Z,7.22
2024-03-05T14:01:40.377Z,7.85
2024-03-05T14:04:10.663Z,6.95
2024-03-05T14:06:40.039Z,8.65
2024-03-05T14:09:09.804Z,7.45
2024-03-05T14:11:36.816Z,7.07
2024-03-05T14:14:05.369Z,7.47
2024-03-05T14:16:33.529Z,7.25
2024-03-05T14:19:00.837Z,7.20
2024-03-05T14:21:31.421Z,7.43
2024-03-05T14:23:58.825Z,5.33
2024-03-05T14:26:25.483Z,7.95
2024-03-05T14:28:52.272Z,7.63
2024-03-05T14:31:19.048Z,7.60
2024-03-05T14:33:45.591Z,8.30
2024-03-05T14:36:15.031Z,7.88
2024-03-05T14:38:43.559Z,7.53
2024-03-05T14:41:11.024Z,7.70
2024-03-05T14:43:38.007Z,9.23
2024-03-05T14:46:05.083Z,8.60
2024-03-05T14:48:31.576Z,9.65
2024-03-05T14:50:58.036Z,9.40
2024-03-05T14:53:24.720Z,9.30
2024-03-05T14:55:51.986Z,8.85
2024-03-05T14:58:18.673Z,9.20
2024-03-05T15:00:45.592Z,8.55
2024-03-05T15:03:12.137Z,10.35
2024-03-05T15:05:39.361Z,9.63
2024-03-05T15:08:07.173Z,10.45
2024-03-05T15:10:35.478Z,10.65
2024-03-05T15:13:01.988Z,10.38
2024-03-05T15:15:28.466Z,9.52
2024-03-05T15:17:55.796Z,11.63
2024-03-05T15:20:23.017Z,11.55
2024-03-05T15:22:50.672Z,11.40
2024-03-05T15:25:24.589Z,10.50
2024-03-05T15:30:21.026Z,10.73
2024-03-05T15:32:52.020Z,10.68
2024-03-05T15:35:23.943Z,10.05
2024-03-05T15:37:51.929Z,10.82
2024-03-05T15:40:23.292Z,9.85
2024-03-05T15:42:51.643Z,9.68
2024-03-05T15:45:19.382Z,9.30
2024-03-05T15:47:48.108Z,9.25
2024-03-05T15:50:19.404Z,10.43
2024-03-05T15:52:52.926Z,9.90
2024-03-05T15:55:25.898Z,10.05
2024-03-05T15:58:09.800Z,11.30
2024-03-05T16:00:39.572Z,10.32
2024-03-05T16:03:14.292Z,10.18
2024-03-05T16:05:55.481Z,11.18
2024-03-05T16:08:30.893Z,11.38
2024-03-05T16:10:57.495Z,11.30
2024-03-05T16:13:24.208Z,11.60
2024-03-05T16:15:51.178Z,11.40
2024-03-05T16:18:18.646Z,11.48
2024-03-05T16:20:46.965Z,11.15
2024-03-05T16:23:13.646Z,10.77
2024-03-05T16:25:41.532Z,10.75
2024-03-05T16:28:14.169Z,10.60
2024-03-05T16:30:40.896Z,10.82
2024-03-05T16:33:07.849Z,11.00
2024-03-05T16:35:36.246Z,11.13
2024-03-05T16:38:04.895Z,12.50
2024-03-05T16:40:36.041Z,10.07
2024-03-05T16:43:04.029Z,10.80
2024-03-05T16:45:30.574Z,11.50
2024-03-05T16:48:01.036Z,11.20
2024-03-05T16:50:29.058Z,12.83
2024-03-05T16:52:57.895Z,12.50
2024-03-05T16:55:27.033Z,12.55
2024-03-05T16:58:00.570Z,12.00
2024-03-05T17:00:32.149Z,13.05
2024-03-05T17:05:37.521Z,14.35
2024-03-05T17:08:11.336Z,10.00
2024-03-05T17:10:40.966Z,13.20
2024-03-05T17:13:08.958Z,13.02
2024-03-05T17:15:45.608Z,13.57
2024-03-05T17:18:12.622Z,14.55
2024-03-05T17:20:39.626Z,14.05
2024-03-05T17:23:07.147Z,14.55
2024-03-05T17:25:38.444Z,14.40
2024-03-05T17:28:09.308Z,15.27
2024-03-05T17:30:36.067Z,14.73
2024-03-05T17:33:02.612Z,15.48
2024-03-05T17:35:29.144Z,14.27
2024-03-05T17:37:56.389Z,15.45
2024-03-05T17:40:22.934Z,14.82
2024-03-05T17:42:50.130Z,15.73
2024-03-05T17:45:17.422Z,14.95
2024-03-05T17:47:44.242Z,14.63
2024-03-05T17:50:23.173Z,15.57
2024-03-05T17:52:49.803Z,15.02
2024-03-05T17:55:17.613Z,14.30
2024-03-05T17:57:48.353Z,15.13
2024-03-05T18:00:15.959Z,16.02
2024-03-05T18:02:47.282Z,14.68
2024-03-05T18:05:14.118Z,14.95
2024-03-05T18:07:41.339Z,16.13
2024-03-05T18:10:08.752Z,15.27
2024-03-05T18:12:35.781Z,15.10
2024-03-05T18:15:02.800Z,14.40
2024-03-05T18:17:31.312Z,16.00
2024-03-05T18:19:58.450Z,15.52
2024-03-05T18:22:25.529Z,16.83
2024-03-05T18:24:53.397Z,16.30
2024-03-05T18:27:19.937Z,16.15
2024-03-05T18:29:46.697Z,15.63
2024-03-05T18:32:16.539Z,16.27
2024-03-05T18:34:44.071Z,16.08
2024-03-05T18:37:12.721Z,16.55
2024-03-05T18:39:39.342Z,18.38
2024-03-05T18:42:06.501Z,15.90
2024-03-05T18:44:34.549Z,15.30
2024-03-05T18:47:01.601Z,15.27
2024-03-05T18:49:29.062Z,16.27
2024-03-05T18:51:56.579Z,15.38
2024-03-05T18:54:23.478Z,14.88
2024-03-05T18:56:50.103Z,15.95
2024-03-05T18:59:18.391Z,15.55
2024-03-05T19:01:46.603Z,16.27
2024-03-05T19:04:13.387Z,15.98
2024-03-05T19:06:40.620Z,16.65
2024-03-05T19:09:09.930Z,16.60
2024-03-05T19:11:37.053Z,16.48
2024-03-05T19:14:08.700Z,15.40
2024-03-05T19:19:04.075Z,16.08
2024-03-05T19:21:32.009Z,17.10
2024-03-05T19:23:58.730Z,16.98
2024-03-05T19:26:27.802Z,16.13
2024-03-05T19:28:54.276Z,17.67
2024-03-05T19:31:20.841Z,16.10
2024-03-05T19:33:47.306Z,18.23
2024-03-05T19:36:14.901Z,19.00
2024-03-05T19:38:42.858Z,17.33
2024-03-05T19:41:11.205Z,17.42
2024-03-05T19:43:41.481Z,16.65
2024-03-05T19:46:08.602Z,17.65
2024-03-05T19:48:35.089Z,16.63
2024-03-05T19:51:05.312Z,16.40
2024-03-05T19:53:31.826Z,16.63
2024-03-05T19:55:58.718Z,17.63
2024-03-05T19:58:25.149Z,17.73
2024-03-05T20:00:51.672Z,18.98
2024-03-05T20:03:18.274Z,17.42
2024-03-05T20:05:45.339Z,19.15
2024-03-05T20:08:13.640Z,17.88
2024-03-05T20:10:40.211Z,16.67
2024-03-05T20:13:07.821Z,18.60
2024-03-05T20:15:34.347Z,19.90
2024-03-05T20:18:00.787Z,18.30
2024-03-05T20:20:29.773Z,16.92
2024-03-05T20:22:56.937Z,17.50
2024-03-05T20:25:24.276Z,17.70
2024-03-05T20:27:52.318Z,18.05
2024-03-05T20:30:19.378Z,18.20
2024-03-05T20:32:46.794Z,18.17
2024-03-05T20:35:17.530Z,19.10
2024-03-05T20:37:44.952Z,18.60
2024-03-05T20:40:12.988Z,17.58
2024-03-05T20:42:41.663Z,20.02
2024-03-05T20:45:08.658Z,19.35
2024-03-05T20:47:35.232Z,19.95
2024-03-05T20:50:01.763Z,19.13
2024-03-05T20:52:29.539Z,18.33
2024-03-05T20:54:56.496Z,18.80
2024-03-05T20:57:23.575Z,18.42
2024-03-05T20:59:50.806Z,18.80
2024-03-05T21:02:17.596Z,18.80
2024-03-05T21:04:44.154Z,19.23
2024-03-05T21:07:10.681Z,18.48
2024-03-05T21:09:39.503Z,18.10
2024-03-05T21:12:06.199Z,18.77
2024-03-05T21:14:32.623Z,19.17
2024-03-05T21:16:59.190Z,18.02
2024-03-05T21:19:29.411Z,18.88
2024-03-05T21:21:57.154Z,19.08
2024-03-05T21:24:24.321Z,18.40
2024-03-05T21:29:20.553Z,19.98
2024-03-05T21:31:48.040Z,19.70
2024-03-05T21:34:14.623Z,19.50
2024-03-05T21:36:42.601Z,19.95
2024-03-05T21:39:09.090Z,19.67
2024-03-05T21:41:35.604Z,19.48
2024-03-05T21:44:02.109Z,19.55
2024-03-05T21:46:28.687Z,20.40
2024-03-05T21:48:55.325Z,19.83
2024-03-05T21:51:21.812Z,20.05
2024-03-05T21:53:49.072Z,19.60
2024-03-05T21:56:16.455Z,21.27
2024-03-05T21:58:44.045Z,21.10
2024-03-05T22:01:11.028Z,20.60
2024-03-05T22:03:37.463Z,22.33
2024-03-05T22:06:12.587Z,21.98
2024-03-05T22:08:45.393Z,22.63
2024-03-05T22:11:12.371Z,22.95
2024-03-05T22:13:38.866Z,22.30
2024-03-05T22:16:05.418Z,22.88
2024-03-05T22:18:31.897Z,24.05
2024-03-05T22:20:58.515Z,23.27
2024-03-05T22:23:24.965Z,22.95
2024-03-05T22:25:51.457Z,23.60
2024-03-05T22:28:18.058Z,22.52
2024-03-05T22:30:45.084Z,22.35
2024-03-05T22:33:12.057Z,21.90
2024-03-05T22:35:39.018Z,22.83
2024-03-05T22:38:05.941Z,22.85
2024-03-05T22:40:33.015Z,22.05
2024-03-05T22:42:59.538Z,22.42
2024-03-05T22:45:27.439Z,23.50
2024-03-05T22:47:53.946Z,21.58
2024-03-05T22:50:22.497Z,23.48
2024-03-05T22:52:50.154Z,23.05
2024-03-05T22:55:16.686Z,22.92
2024-03-05T22:57:43.154Z,22.45
2024-03-05T23:00:25.018Z,22.83
2024-03-05T23:02:52.710Z,22.38
2024-03-05T23:05:20.565Z,21.52
2024-03-05T23:07:47.681Z,23.33
2024-03-05T23:10:18.108Z,22.70
2024-03-05T23:12:45.650Z,21.45
2024-03-05T23:15:16.371Z,21.83
2024-03-05T23:17:43.995Z,21.55
2024-03-05T23:20:14.315Z,21.20
2024-03-05T23:22:41.002Z,21.38
2024-03-05T23:25:08.204Z,20.60
2024-03-05T23:27:34.862Z,21.05
2024-03-05T23:30:01.823Z,22.30
2024-03-05T23:32:28.344Z,20.67
2024-03-05T23:34:57.045Z,21.60
2024-03-05T23:37:24.444Z,21.23
2024-03-05T23:39:50.938Z,22.27
2024-03-05T23:42:18.264Z,21.50
2024-03-05T23:44:44.762Z,22.40
2024-03-05T23:47:11.296Z,21.25
2024-03-05T23:49:37.858Z,21.38
2024-03-05T23:52:04.565Z,20.05
2024-03-05T23:54:34.934Z,22.42
2024-03-05T23:57:02.095Z,21.10
2024-03-05T23:59:28.650Z,22.13
